Time;durP1;ratioP1;P1;durP2;ratioP2;P2;SDS_P1;SDS_P2;PMS_P1;PMS_P2;Temp;Humidity;BMP_temperature;BMP_pressure;BME280_temperature;BME280_humidity;BME280_pressure;Samples;Min_cycle;Max_cycle;Signal;HPM_P1;HPM_P2
2023/12/01 00:00:12;;;;;;;42.72;22.30;;;;;;;0.87;100.00;100223.09;5068431;28;20273;-72
2023/12/01 00:02:37;;;;;;;41.05;21.40;;;;;;;0.87;100.00;100220.44;5063993;28;20021;-72
2023/12/01 00:05:03;;;;;;;37.85;22.08;;;;;;;0.89;100.00;100231.78;5058405;28;20055;-72
2023/12/01 00:07:28;;;;;;;39.00;21.33;;;;;;;0.86;100.00;100230.16;5074801;28;20037;-72
2023/12/01 00:09:53;;;;;;;37.60;21.50;;;;;;;0.84;100.00;100231.16;5071472;28;20081;-72
2023/12/01 00:12:18;;;;;;;38.50;19.70;;;;;;;0.79;100.00;100226.06;5062007;28;20024;-72
2023/12/01 00:14:44;;;;;;;41.05;21.00;;;;;;;0.81;100.00;100229.50;5076275;28;20031;-72
2023/12/01 00:17:12;;;;;;;44.78;22.52;;;;;;;0.82;100.00;100239.16;5075612;28;20020;-72
2023/12/01 00:19:40;;;;;;;39.03;20.75;;;;;;;0.81;100.00;100242.72;5061409;28;20116;-72
2023/12/01 00:22:05;;;;;;;40.35;21.50;;;;;;;0.80;100.00;100240.13;5061094;28;20033;-72
2023/12/01 00:24:30;;;;;;;45.42;23.15;;;;;;;0.77;100.00;100235.81;5075556;28;20016;-72
2023/12/01 00:26:55;;;;;;;42.67;22.95;;;;;;;0.75;100.00;100242.09;5071560;28;20075;-72
2023/12/01 00:29:21;;;;;;;46.92;24.17;;;;;;;0.73;100.00;100250.09;5066587;28;20052;-72
2023/12/01 00:31:46;;;;;;;38.92;21.60;;;;;;;0.71;100.00;100246.69;5071267;28;20033;-72
2023/12/01 00:34:11;;;;;;;40.00;21.45;;;;;;;0.68;100.00;100245.00;5074096;28;20501;-72
2023/12/01 00:36:37;;;;;;;39.55;20.65;;;;;;;0.66;100.00;100244.22;5073118;28;20115;-72
2023/12/01 00:39:03;;;;;;;38.30;20.33;;;;;;;0.65;100.00;100247.78;5062590;28;20024;-72
2023/12/01 00:41:28;;;;;;;39.85;20.85;;;;;;;0.65;100.00;100246.94;5067043;28;20025;-72
2023/12/01 00:43:54;;;;;;;38.70;22.13;;;;;;;0.64;100.00;100250.50;5064204;28;20096;-72
2023/12/01 00:46:19;;;;;;;39.55;20.38;;;;;;;0.63;100.00;100260.22;5063388;28;20041;-72
2023/12/01 00:48:44;;;;;;;41.03;22.05;;;;;;;0.62;100.00;100253.22;5072045;28;20120;-72
2023/12/01 00:51:19;;;;;;;36.65;19.92;;;;;;;0.65;100.00;100258.38;5056927;28;20051;-72
2023/12/01 00:53:46;;;;;;;40.63;21.35;;;;;;;0.62;100.00;100261.16;5064987;28;20173;-72
2023/12/01 00:56:15;;;;;;;44.47;22.15;;;;;;;0.62;100.00;100262.94;5069671;28;20024;-72
2023/12/01 00:58:40;;;;;;;42.65;23.50;;;;;;;0.60;100.00;100265.66;5070090;28;20024;-72
2023/12/01 01:01:06;;;;;;;43.13;22.75;;;;;;;0.63;100.00;100269.94;5065969;28;20098;-72
2023/12/01 01:03:32;;;;;;;40.38;21.67;;;;;;;0.59;100.00;100271.84;5057115;28;20039;-72
2023/12/01 01:05:58;;;;;;;39.97;21.13;;;;;;;0.59;100.00;100265.72;5061394;28;20024;-72
2023/12/01 01:08:23;;;;;;;39.72;21.08;;;;;;;0.58;100.00;100264.84;5062878;28;20021;-72
2023/12/01 01:10:48;;;;;;;38.80;20.15;;;;;;;0.56;100.00;100268.47;5047364;28;20021;-72
2023/12/01 01:13:14;;;;;;;37.58;20.02;;;;;;;0.54;100.00;100271.16;5054585;28;20032;-73
2023/12/01 01:15:39;;;;;;;42.58;22.13;;;;;;;0.54;100.00;100272.97;5051681;28;20492;-73
2023/12/01 01:18:06;;;;;;;40.28;21.00;;;;;;;0.55;100.00;100275.53;5062057;28;20383;-73
2023/12/01 01:20:31;;;;;;;41.92;23.27;;;;;;;0.54;100.00;100275.59;5053789;28;20455;-73
2023/12/01 01:22:57;;;;;;;40.05;21.73;;;;;;;0.52;100.00;100278.31;5051835;28;20040;-74
2023/12/01 01:25:22;;;;;;;39.85;20.40;;;;;;;0.52;100.00;100283.59;5049197;28;20063;-74
2023/12/01 01:27:47;;;;;;;40.40;18.52;;;;;;;0.49;100.00;100289.00;5046380;28;20029;-73
2023/12/01 01:30:13;;;;;;;41.63;21.63;;;;;;;0.47;100.00;100288.19;5050294;28;20029;-73
2023/12/01 01:32:38;;;;;;;39.58;20.73;;;;;;;0.45;100.00;100292.69;5043999;28;20017;-73
2023/12/01 01:35:04;;;;;;;43.95;23.08;;;;;;;0.42;100.00;100287.53;5050117;28;20146;-73
2023/12/01 01:37:30;;;;;;;39.80;19.60;;;;;;;0.40;100.00;100294.69;5047419;28;20029;-73
2023/12/01 01:39:55;;;;;;;40.78;19.45;;;;;;;0.39;100.00;100292.97;5055160;28;20038;-73
2023/12/01 01:42:20;;;;;;;43.08;20.90;;;;;;;0.38;100.00;100296.50;5054344;28;20110;-74
2023/12/01 01:44:46;;;;;;;37.03;18.83;;;;;;;0.34;100.00;100291.34;5050582;28;20044;-73
2023/12/01 01:47:12;;;;;;;42.63;22.85;;;;;;;0.32;100.00;100293.22;5050040;28;20021;-73
2023/12/01 01:49:37;;;;;;;43.50;22.85;;;;;;;0.30;100.00;100292.38;5056760;28;20099;-73
2023/12/01 01:52:04;;;;;;;45.90;22.42;;;;;;;0.28;100.00;100288.97;5054341;28;20345;-73
2023/12/01 01:54:30;;;;;;;46.00;21.45;;;;;;;0.26;100.00;100304.00;5058079;28;20029;-73
2023/12/01 01:56:57;;;;;;;41.88;21.10;;;;;;;0.27;100.00;100304.88;5050225;28;20040;-73
2023/12/01 01:59:22;;;;;;;37.78;20.75;;;;;;;0.24;100.00;100305.00;5056723;28;20036;-72
2023/12/01 02:01:49;;;;;;;45.70;22.15;;;;;;;0.23;100.00;100308.56;5055269;28;20346;-73
2023/12/01 02:04:16;;;;;;;38.63;19.60;;;;;;;0.23;100.00;100306.75;5053748;28;20353;-73
2023/12/01 02:06:41;;;;;;;41.35;20.65;;;;;;;0.24;100.00;100310.28;5048262;28;20165;-73
2023/12/01 02:09:06;;;;;;;42.03;21.17;;;;;;;0.21;100.00;100310.41;5060542;28;20058;-73
2023/12/01 02:11:33;;;;;;;44.63;21.02;;;;;;;0.20;100.00;100317.47;5048227;28;20052;-73
2023/12/01 02:14:02;;;;;;;42.47;22.00;;;;;;;0.17;100.00;100314.94;5054327;28;20028;-73
2023/12/01 02:16:28;;;;;;;42.08;20.30;;;;;;;0.15;100.00;100306.22;5050305;28;20071;-73
2023/12/01 02:18:54;;;;;;;40.85;20.60;;;;;;;0.14;100.00;100323.84;5048542;28;20021;-74
2023/12/01 02:21:27;;;;;;;39.00;19.92;;;;;;;0.14;100.00;100315.91;5057205;28;20309;-73
2023/12/01 02:23:53;;;;;;;45.35;20.90;;;;;;;0.14;100.00;100323.00;5052176;28;20097;-73
2023/12/01 02:26:20;;;;;;;41.72;21.40;;;;;;;0.12;100.00;100319.56;5048979;28;20432;-73
2023/12/01 02:28:45;;;;;;;39.65;20.75;;;;;;;0.11;100.00;100321.31;5052091;28;20055;-73
2023/12/01 02:31:11;;;;;;;45.50;22.70;;;;;;;0.08;100.00;100321.44;5054721;28;20546;-72
2023/12/01 02:33:36;;;;;;;42.17;19.45;;;;;;;0.06;100.00;100322.41;5050743;28;20074;-72
2023/12/01 02:36:04;;;;;;;43.72;21.92;;;;;;;0.05;100.00;100323.34;5052023;28;20487;-72
2023/12/01 02:38:29;;;;;;;42.67;20.38;;;;;;;0.04;100.00;100326.91;5051951;28;20023;-72
2023/12/01 02:40:55;;;;;;;40.85;20.55;;;;;;;0.03;100.00;100322.53;5047381;28;20034;-72
2023/12/01 02:43:21;;;;;;;49.30;24.52;;;;;;;0.02;100.00;100321.69;5054732;28;20426;-72
2023/12/01 02:45:46;;;;;;;44.38;23.27;;;;;;;-0.03;100.00;100323.63;5053544;28;20579;-72
2023/12/01 02:48:12;;;;;;;46.78;21.60;;;;;;;-0.07;100.00;100314.13;5050285;28;20510;-72
2023/12/01 02:50:38;;;;;;;41.72;21.88;;;;;;;-0.08;100.00;100318.53;5050684;28;20059;-72
2023/12/01 02:53:04;;;;;;;43.97;22.17;;;;;;;-0.08;100.00;100321.16;5047207;28;20075;-72
2023/12/01 02:55:30;;;;;;;40.30;20.60;;;;;;;-0.10;100.00;100319.50;5047197;28;20032;-72
2023/12/01 02:57:55;;;;;;;43.90;21.88;;;;;;;-0.13;100.00;100320.50;5052847;28;20024;-72
2023/12/01 03:00:24;;;;;;;42.53;20.75;;;;;;;-0.12;100.00;100314.25;5048484;28;20231;-72
2023/12/01 03:02:50;;;;;;;46.03;23.75;;;;;;;-0.12;100.00;100323.97;5052375;28;20043;-72
2023/12/01 03:05:16;;;;;;;48.30;22.83;;;;;;;-0.13;100.00;100312.56;5051598;28;20506;-72
2023/12/01 03:07:42;;;;;;;44.85;22.35;;;;;;;-0.11;100.00;100317.78;5050984;28;20435;-72
2023/12/01 03:10:08;;;;;;;45.50;22.42;;;;;;;-0.10;100.00;100317.72;5052934;28;20370;-72
2023/12/01 03:12:37;;;;;;;46.60;20.73;;;;;;;-0.12;100.00;100311.63;5061623;28;20027;-72
2023/12/01 03:15:19;;;;;;;44.08;23.55;;;;;;;-0.09;100.00;100319.47;5057325;28;20056;-72
2023/12/01 03:17:46;;;;;;;43.03;21.20;;;;;;;-0.08;100.00;100321.16;5057834;28;20112;-72
2023/12/01 03:20:14;;;;;;;46.55;24.25;;;;;;;-0.07;100.00;100317.59;5060039;28;20128;-72
2023/12/01 03:22:41;;;;;;;42.90;22.52;;;;;;;-0.05;100.00;100326.31;5055941;28;20035;-72
2023/12/01 03:25:11;;;;;;;43.97;22.08;;;;;;;-0.06;100.00;100327.25;5053035;28;20033;-72
2023/12/01 03:27:40;;;;;;;46.60;21.80;;;;;;;-0.03;100.00;100326.25;5047877;28;20036;-72
2023/12/01 03:30:13;;;;;;;46.33;23.58;;;;;;;-0.01;100.00;100327.09;5057094;28;20021;-72
2023/12/01 03:32:41;;;;;;;48.70;23.83;;;;;;;0.02;100.00;100326.97;5050712;28;20488;-72
2023/12/01 03:35:06;;;;;;;46.53;23.45;;;;;;;0.03;100.00;100327.81;5059189;28;20047;-72
2023/12/01 03:37:32;;;;;;;42.78;21.65;;;;;;;0.03;100.00;100326.06;5057456;28;20028;-72
2023/12/01 03:39:57;;;;;;;44.67;21.40;;;;;;;0.03;100.00;100326.06;5056172;28;20036;-71
2023/12/01 03:42:22;;;;;;;48.55;23.80;;;;;;;0.02;100.00;100334.03;5062834;28;20492;-70
2023/12/01 03:44:48;;;;;;;49.15;24.30;;;;;;;0.02;100.00;100336.69;5053099;28;20079;-70
2023/12/01 03:47:13;;;;;;;48.85;23.13;;;;;;;0.02;100.00;100331.41;5064537;28;20036;-71
2023/12/01 03:49:38;;;;;;;48.92;23.23;;;;;;;0.03;100.00;100333.09;5068827;28;22127;-70
2023/12/01 03:52:08;;;;;;;49.58;22.65;;;;;;;0.01;100.00;100332.31;5069210;28;20039;-71
2023/12/01 03:54:34;;;;;;;48.33;24.23;;;;;;;0.01;100.00;100327.03;5064681;28;20021;-70
2023/12/01 03:56:59;;;;;;;52.97;25.67;;;;;;;-0.02;100.00;100341.22;5064922;28;20092;-70
2023/12/01 03:59:25;;;;;;;51.25;23.20;;;;;;;-0.06;100.00;100343.13;5059821;28;20245;-69
2023/12/01 04:01:50;;;;;;;54.25;26.55;;;;;;;-0.06;100.00;100340.47;5061521;28;20051;-71
2023/12/01 04:04:16;;;;;;;53.60;24.63;;;;;;;-0.04;100.00;100348.34;5061266;28;20025;-72
2023/12/01 04:06:42;;;;;;;56.00;25.65;;;;;;;-0.06;100.00;100350.16;5059330;28;20543;-70
2023/12/01 04:09:09;;;;;;;51.90;25.70;;;;;;;-0.04;100.00;100350.97;5065850;28;20024;-71
2023/12/01 04:11:35;;;;;;;53.58;25.48;;;;;;;-0.03;100.00;100348.28;5062575;28;20115;-71
2023/12/01 04:14:03;;;;;;;54.13;25.40;;;;;;;-0.02;100.00;100360.53;5063430;28;20488;-70
2023/12/01 04:16:29;;;;;;;60.28;28.92;;;;;;;-0.01;100.00;100359.63;5054883;28;20037;-70
2023/12/01 04:18:55;;;;;;;57.63;28.13;;;;;;;-0.02;100.00;100368.47;5058657;28;20035;-70
2023/12/01 04:21:20;;;;;;;57.72;26.42;;;;;;;-0.04;100.00;100372.97;5059228;28;20033;-70
2023/12/01 04:23:46;;;;;;;54.88;26.58;;;;;;;-0.07;100.00;100375.72;5067571;28;20028;-70
2023/12/01 04:26:12;;;;;;;54.53;26.02;;;;;;;-0.10;100.00;100374.97;5058737;28;20036;-70
2023/12/01 04:28:38;;;;;;;53.92;24.40;;;;;;;-0.12;100.00;100377.66;5058952;28;20028;-70
2023/12/01 04:31:05;;;;;;;57.03;25.77;;;;;;;-0.13;100.00;100380.34;5064552;28;20048;-71
2023/12/01 04:33:31;;;;;;;48.85;25.55;;;;;;;-0.16;100.00;100378.72;5064242;28;20033;-70
2023/12/01 04:35:56;;;;;;;47.53;23.92;;;;;;;-0.15;100.00;100382.19;5063296;28;20025;-70
2023/12/01 04:38:21;;;;;;;47.90;22.15;;;;;;;-0.15;100.00;100376.91;5064834;28;20091;-71
2023/12/01 04:40:47;;;;;;;48.33;23.95;;;;;;;-0.15;100.00;100392.78;5054461;28;20090;-70
2023/12/01 04:43:12;;;;;;;51.72;23.30;;;;;;;-0.20;100.00;100390.31;5051620;28;20020;-72
2023/12/01 04:45:37;;;;;;;52.72;22.65;;;;;;;-0.20;100.00;100385.00;5058688;28;20520;-70
2023/12/01 04:48:03;;;;;;;54.95;23.85;;;;;;;-0.23;100.00;100385.97;5057347;28;20029;-70
2023/12/01 04:50:30;;;;;;;54.67;24.15;;;;;;;-0.20;100.00;100385.00;5050077;28;20120;-72
2023/12/01 04:52:56;;;;;;;47.60;23.30;;;;;;;-0.20;100.00;100392.94;5060649;28;20111;-70
2023/12/01 04:55:26;;;;;;;49.72;25.17;;;;;;;-0.19;100.00;100397.28;5061574;28;20028;-71
2023/12/01 04:57:52;;;;;;;54.83;25.35;;;;;;;-0.17;100.00;100403.38;5058653;28;20079;-70
2023/12/01 05:00:22;;;;;;;45.35;23.55;;;;;;;-0.15;100.00;100408.63;5062266;28;20036;-72
2023/12/01 05:02:52;;;;;;;52.15;24.10;;;;;;;-0.16;100.00;100402.47;5049134;28;20064;-72
2023/12/01 05:05:22;;;;;;;54.67;23.27;;;;;;;-0.16;100.00;100404.25;5065146;28;20036;-71
2023/12/01 05:07:52;;;;;;;57.35;25.83;;;;;;;-0.16;100.00;100415.69;5060495;28;20028;-72
2023/12/01 05:10:22;;;;;;;59.80;27.60;;;;;;;-0.17;100.00;100418.38;5061730;28;20099;-72
2023/12/01 05:12:49;;;;;;;51.25;25.77;;;;;;;-0.16;100.00;100415.69;5064407;28;20396;-71
2023/12/01 05:15:19;;;;;;;55.55;25.92;;;;;;;-0.17;100.00;100411.31;5061991;28;20029;-72
2023/12/01 05:17:48;;;;;;;;;;;;;;;-0.08;100.00;100418.91;5054592;28;20009;-71
2023/12/01 05:20:18;;;;;;;54.85;26.77;;;;;;;-0.14;100.00;100419.13;5068678;28;19923;-71
2023/12/01 05:22:47;;;;;;;;;;;;;;;-0.07;100.00;100420.63;5061514;28;20017;-71
2023/12/01 05:25:13;;;;;;;53.65;25.92;;;;;;;-0.13;100.00;100422.63;5062509;28;20233;-71
2023/12/01 05:27:45;;;;;;;58.03;26.90;;;;;;;-0.13;100.00;100426.13;5061506;28;20031;-71
2023/12/01 05:30:12;;;;;;;55.78;28.02;;;;;;;-0.12;100.00;100429.63;5062711;28;20031;-71
2023/12/01 05:32:48;;;;;;;52.80;27.13;;;;;;;-0.11;100.00;100426.94;5059871;28;20056;-72
2023/12/01 05:35:15;;;;;;;54.65;28.63;;;;;;;-0.10;100.00;100433.94;5057574;28;20031;-71
2023/12/01 05:37:49;;;;;;;55.00;27.05;;;;;;;-0.07;100.00;100436.47;5057741;28;20052;-72
2023/12/01 05:40:22;;;;;;;54.88;29.50;;;;;;;-0.06;100.00;100435.56;5057600;28;20074;-71
2023/12/01 05:42:49;;;;;;;63.50;28.73;;;;;;;-0.05;100.00;100437.28;5056302;28;20057;-71
2023/12/01 05:45:15;;;;;;;56.58;30.35;;;;;;;-0.03;100.00;100439.84;5058014;28;20460;-72
2023/12/01 05:47:43;;;;;;;57.60;31.55;;;;;;;0.01;100.00;100444.13;5063917;28;20160;-72
2023/12/01 05:50:16;;;;;;;57.15;28.77;;;;;;;0.04;100.00;100451.09;5065488;28;20067;-72
2023/12/01 05:52:45;;;;;;;59.05;28.33;;;;;;;0.03;100.00;100449.34;5060907;28;20039;-72
2023/12/01 05:55:33;;;;;;;59.92;30.55;;;;;;;0.06;100.00;100455.41;5059313;28;20032;-72
2023/12/01 05:58:07;;;;;;;64.97;29.92;;;;;;;0.05;100.00;100456.31;5063616;28;20016;-72
2023/12/01 06:00:32;;;;;;;53.70;27.45;;;;;;;0.07;100.00;100445.69;5069263;28;20024;-72
2023/12/01 06:03:18;;;;;;;53.20;27.92;;;;;;;0.06;100.00;100458.03;5053953;28;20021;-72
2023/12/01 06:05:43;;;;;;;54.25;28.90;;;;;;;0.05;100.00;100458.09;5066371;28;20263;-72
2023/12/01 06:08:08;;;;;;;53.80;28.88;;;;;;;0.03;100.00;100463.44;5066218;28;20076;-72
2023/12/01 06:10:34;;;;;;;49.45;26.48;;;;;;;0.02;100.00;100459.06;5059383;28;20101;-72
2023/12/01 06:13:00;;;;;;;45.50;25.25;;;;;;;0.02;100.00;100461.72;5042125;28;20028;-72
2023/12/01 06:15:29;;;;;;;44.33;24.35;;;;;;;-0.01;100.00;100465.31;5052976;28;20025;-72
2023/12/01 06:17:55;;;;;;;45.37;25.50;;;;;;;0.00;100.00;100458.28;5045174;28;20021;-72
2023/12/01 06:20:22;;;;;;;54.47;26.23;;;;;;;-0.01;100.00;100457.38;5043116;28;20365;-72
2023/12/01 06:22:48;;;;;;;46.65;26.02;;;;;;;-0.01;100.00;100452.09;5053005;28;20086;-72
2023/12/01 06:25:19;;;;;;;48.28;27.52;;;;;;;0.01;100.00;100462.63;5049553;28;20095;-72
2023/12/01 06:27:45;;;;;;;53.65;26.30;;;;;;;0.00;100.00;100460.91;5051219;28;20067;-72
2023/12/01 06:30:12;;;;;;;48.17;25.80;;;;;;;0.00;100.00;100460.91;5049237;28;20425;-72
2023/12/01 06:32:47;;;;;;;48.70;24.45;;;;;;;0.04;100.00;100466.94;5047970;28;20033;-72
2023/12/01 06:35:14;;;;;;;47.17;24.17;;;;;;;0.03;100.00;100473.13;5051110;28;20024;-72
2023/12/01 06:37:40;;;;;;;44.33;25.00;;;;;;;0.03;100.00;100475.78;5053406;28;20044;-72
2023/12/01 06:40:15;;;;;;;47.10;25.45;;;;;;;0.03;100.00;100476.66;5052414;28;20035;-72
2023/12/01 06:42:45;;;;;;;45.20;24.15;;;;;;;0.03;100.00;100481.06;5047888;28;20077;-72
2023/12/01 06:45:13;;;;;;;51.63;25.77;;;;;;;0.02;100.00;100482.00;5044431;28;20028;-72
2023/12/01 06:47:40;;;;;;;46.55;24.85;;;;;;;0.03;100.00;100476.66;5037585;28;20041;-72
2023/12/01 06:50:09;;;;;;;44.72;23.88;;;;;;;0.05;100.00;100480.09;5037304;28;20504;-72
2023/12/01 06:52:36;;;;;;;40.10;20.83;;;;;;;0.08;100.00;100479.13;5049570;28;20074;-72
2023/12/01 06:55:01;;;;;;;50.88;24.55;;;;;;;0.08;100.00;100477.34;5043560;28;20403;-72
2023/12/01 06:57:26;;;;;;;45.97;25.08;;;;;;;0.08;100.00;100489.69;5050937;28;20033;-72
2023/12/01 06:59:53;;;;;;;43.58;21.83;;;;;;;0.06;100.00;100486.22;5054257;28;20028;-72
2023/12/01 07:02:18;;;;;;;43.28;23.25;;;;;;;0.08;100.00;100484.41;5051331;28;20087;-72
2023/12/01 07:04:44;;;;;;;44.50;23.35;;;;;;;0.07;100.00;100495.88;5045525;28;20025;-72
2023/12/01 07:07:12;;;;;;;41.92;21.45;;;;;;;0.06;100.00;100488.88;5041201;28;20400;-72
2023/12/01 07:09:38;;;;;;;40.72;21.25;;;;;;;0.07;100.00;100494.09;5053966;28;20112;-72
2023/12/01 07:12:05;;;;;;;41.88;21.77;;;;;;;0.09;100.00;100492.28;5053598;28;20067;-72
2023/12/01 07:14:30;;;;;;;41.35;20.67;;;;;;;0.11;100.00;100505.44;5051428;28;20131;-72
2023/12/01 07:16:56;;;;;;;45.13;21.77;;;;;;;0.12;100.00;100501.88;5056330;28;20029;-72
2023/12/01 07:19:21;;;;;;;42.10;22.60;;;;;;;0.13;100.00;100504.47;5054476;28;20482;-72
2023/12/01 07:21:47;;;;;;;41.95;20.90;;;;;;;0.16;100.00;100509.66;5051942;28;20044;-72
2023/12/01 07:24:13;;;;;;;39.63;19.45;;;;;;;0.20;100.00;100505.09;5053605;28;20020;-72
2023/12/01 07:26:38;;;;;;;44.33;23.73;;;;;;;0.23;100.00;100504.97;5049318;28;20404;-72
2023/12/01 07:29:04;;;;;;;40.63;21.38;;;;;;;0.26;100.00;100510.16;5051535;28;20040;-72
2023/12/01 07:31:32;;;;;;;42.72;22.05;;;;;;;0.25;100.00;100508.44;5054402;28;20463;-72
2023/12/01 07:33:57;;;;;;;40.88;22.30;;;;;;;0.27;100.00;100503.09;5050185;28;20469;-72
2023/12/01 07:36:22;;;;;;;40.20;19.13;;;;;;;0.27;100.00;100503.97;5057744;28;20112;-72
2023/12/01 07:38:48;;;;;;;43.75;22.17;;;;;;;0.29;100.00;100499.50;5044489;28;20024;-72
2023/12/01 07:41:13;;;;;;;40.58;22.80;;;;;;;0.31;100.00;100504.72;5042149;28;20523;-72
2023/12/01 07:43:42;;;;;;;43.28;23.10;;;;;;;0.33;100.00;100506.38;5040609;28;20048;-72
2023/12/01 07:46:08;;;;;;;48.45;22.05;;;;;;;0.34;100.00;100505.47;5031844;28;20080;-72
2023/12/01 07:48:34;;;;;;;38.45;19.30;;;;;;;0.38;100.00;100502.69;5051282;28;20045;-72
2023/12/01 07:50:59;;;;;;;50.10;22.77;;;;;;;0.38;100.00;100508.88;5048169;28;20040;-72
2023/12/01 07:53:24;;;;;;;43.35;20.83;;;;;;;0.41;100.00;100503.47;5057294;28;20041;-72
2023/12/01 07:55:50;;;;;;;39.00;20.63;;;;;;;0.43;100.00;100504.25;5058856;28;20123;-72
2023/12/01 07:58:16;;;;;;;41.47;22.15;;;;;;;0.45;100.00;100501.56;5056441;28;20432;-72
2023/12/01 08:00:42;;;;;;;40.55;21.23;;;;;;;0.46;100.00;100501.50;5046759;28;20419;-72
2023/12/01 08:03:08;;;;;;;44.53;23.27;;;;;;;0.46;100.00;100504.16;5047552;28;20033;-72
2023/12/01 08:05:33;;;;;;;40.83;20.85;;;;;;;0.48;100.00;100497.03;5052231;28;20064;-72
2023/12/01 08:07:58;;;;;;;45.05;22.17;;;;;;;0.50;100.00;100504.91;5047576;28;20400;-72
2023/12/01 08:10:25;;;;;;;46.80;22.88;;;;;;;0.50;100.00;100502.28;5052500;28;20051;-72
2023/12/01 08:12:51;;;;;;;42.95;22.00;;;;;;;0.52;100.00;100500.41;5060061;28;20512;-72
2023/12/01 08:15:17;;;;;;;47.15;24.42;;;;;;;0.51;100.00;100501.34;5055292;28;20361;-72
2023/12/01 08:17:43;;;;;;;42.70;21.33;;;;;;;0.51;100.00;100510.16;5050771;28;20047;-72
2023/12/01 08:20:10;;;;;;;41.00;22.20;;;;;;;0.54;100.00;100511.78;5051609;28;20029;-72
2023/12/01 08:22:37;;;;;;;47.10;22.77;;;;;;;0.57;100.00;100514.34;5057778;28;20028;-72
2023/12/01 08:25:03;;;;;;;39.55;20.58;;;;;;;0.59;100.00;100507.22;5052962;28;20511;-72
2023/12/01 08:27:28;;;;;;;43.78;21.30;;;;;;;0.60;100.00;100518.63;5056018;28;20024;-72
2023/12/01 08:29:54;;;;;;;38.35;20.70;;;;;;;0.63;100.00;100524.69;5053117;28;20553;-72
2023/12/01 08:32:19;;;;;;;41.40;22.98;;;;;;;0.64;100.00;100522.91;5065982;28;20036;-71
2023/12/01 08:34:44;;;;;;;43.75;21.40;;;;;;;0.64;100.00;100520.25;5068184;28;20032;-70
2023/12/01 08:37:10;;;;;;;44.33;20.45;;;;;;;0.68;100.00;100530.66;5071339;28;20028;-71
2023/12/01 08:39:35;;;;;;;42.47;20.88;;;;;;;0.68;100.00;100527.16;5064687;28;20025;-70
2023/12/01 08:42:00;;;;;;;38.47;21.30;;;;;;;0.68;100.00;100537.75;5054665;28;20037;-72
2023/12/01 08:44:25;;;;;;;43.25;22.58;;;;;;;0.68;100.00;100533.28;5053030;28;20464;-72
2023/12/01 08:46:51;;;;;;;36.20;20.05;;;;;;;0.66;100.00;100534.31;5051380;28;20033;-72
2023/12/01 08:49:16;;;;;;;42.97;22.40;;;;;;;0.69;100.00;100539.47;5056876;28;20504;-72
2023/12/01 08:51:41;;;;;;;43.42;21.58;;;;;;;0.70;100.00;100541.19;5059358;28;20081;-72
2023/12/01 08:54:07;;;;;;;41.83;21.35;;;;;;;0.71;100.00;100537.63;5053432;28;20040;-72
2023/12/01 08:56:35;;;;;;;43.22;21.10;;;;;;;0.74;100.00;100542.78;5053886;28;20503;-72
2023/12/01 08:59:00;;;;;;;39.40;20.77;;;;;;;0.75;100.00;100533.94;5048190;28;20025;-72
2023/12/01 09:01:26;;;;;;;40.90;20.15;;;;;;;0.77;100.00;100544.47;5051359;28;20032;-71
2023/12/01 09:03:52;;;;;;;41.08;21.70;;;;;;;0.78;100.00;100543.56;5054203;28;20478;-71
2023/12/01 09:06:17;;;;;;;38.65;19.88;;;;;;;0.78;100.00;100544.41;5051113;28;20074;-71
2023/12/01 09:08:42;;;;;;;39.78;18.17;;;;;;;0.81;100.00;100554.03;5049442;28;20036;-72
2023/12/01 09:11:08;;;;;;;44.75;20.58;;;;;;;0.81;100.00;100540.78;5041019;28;20028;-71
2023/12/01 09:13:34;;;;;;;35.22;17.85;;;;;;;0.81;100.00;100549.56;5047561;28;20478;-72
2023/12/01 09:16:00;;;;;;;35.50;18.17;;;;;;;0.83;100.00;100541.59;5043248;28;20067;-72
2023/12/01 09:18:26;;;;;;;37.15;17.10;;;;;;;0.83;100.00;100549.53;5053607;28;20452;-72
2023/12/01 09:20:51;;;;;;;38.53;20.08;;;;;;;0.84;100.00;100556.53;5054462;28;20032;-72
2023/12/01 09:23:16;;;;;;;34.65;16.13;;;;;;;0.85;100.00;100555.63;5048727;28;20460;-72
2023/12/01 09:25:41;;;;;;;37.13;16.83;;;;;;;0.86;100.00;100563.50;5058046;28;20329;-72
2023/12/01 09:28:07;;;;;;;34.33;17.02;;;;;;;0.90;100.00;100561.59;5054521;28;20028;-72
2023/12/01 09:30:32;;;;;;;29.88;13.45;;;;;;;0.92;100.00;100566.84;5055820;28;20098;-73
2023/12/01 09:32:58;;;;;;;30.25;14.50;;;;;;;0.93;100.00;100572.06;5054481;28;20396;-73
2023/12/01 09:35:25;;;;;;;32.03;15.88;;;;;;;0.98;100.00;100574.53;5054417;28;20054;-73
2023/12/01 09:37:51;;;;;;;33.60;13.18;;;;;;;0.97;100.00;100576.31;5053779;28;20358;-73
2023/12/01 09:40:16;;;;;;;29.73;14.45;;;;;;;0.96;100.00;100577.22;5057057;28;20032;-73
2023/12/01 09:42:42;;;;;;;31.67;16.00;;;;;;;0.96;100.00;100574.59;5049190;28;20048;-73
2023/12/01 09:45:09;;;;;;;31.42;14.77;;;;;;;0.95;100.00;100572.88;5042956;28;20031;-73
2023/12/01 09:47:40;;;;;;;30.27;13.73;;;;;;;0.96;100.00;100576.38;5047741;28;20025;-73
2023/12/01 09:50:11;;;;;;;32.78;13.82;;;;;;;0.91;100.00;100587.16;5045262;28;20413;-73
2023/12/01 09:52:37;;;;;;;28.17;12.98;;;;;;;0.93;100.00;100584.44;5051908;28;20086;-72
2023/12/01 09:55:04;;;;;;;31.90;14.82;;;;;;;0.94;100.00;100579.09;5050649;28;20480;-71
2023/12/01 09:57:29;;;;;;;29.83;13.48;;;;;;;0.95;100.00;100591.41;5051839;28;20036;-72
2023/12/01 09:59:55;;;;;;;32.88;15.15;;;;;;;0.96;100.00;100589.63;5050707;28;20025;-71
2023/12/01 10:02:20;;;;;;;34.45;13.98;;;;;;;0.94;100.00;100584.38;5054205;28;20516;-72
2023/12/01 10:04:45;;;;;;;33.13;15.70;;;;;;;0.95;99.62;100583.47;5053127;28;20238;-71
2023/12/01 10:07:11;;;;;;;33.45;17.23;;;;;;;0.95;100.00;100591.41;5049620;28;20712;-72
2023/12/01 10:09:38;;;;;;;29.70;13.70;;;;;;;0.95;99.51;100577.28;5050612;28;20032;-71
2023/12/01 10:12:10;;;;;;;30.08;14.00;;;;;;;0.95;99.63;100586.13;5046006;28;20035;-72
2023/12/01 10:14:36;;;;;;;31.20;13.93;;;;;;;0.96;99.21;100589.63;5047896;28;20044;-72
2023/12/01 10:17:07;;;;;;;31.77;12.98;;;;;;;0.99;99.58;100584.19;5049869;28;20396;-73
2023/12/01 10:19:34;;;;;;;31.92;13.80;;;;;;;0.98;100.00;100583.34;5053573;28;20189;-74
2023/12/01 10:21:59;;;;;;;30.58;13.25;;;;;;;0.99;99.36;100584.19;5048449;28;20035;-73
2023/12/01 10:24:26;;;;;;;29.90;13.65;;;;;;;0.99;99.57;100586.84;5052246;28;20032;-73
2023/12/01 10:26:53;;;;;;;30.63;14.20;;;;;;;0.99;99.00;100590.34;5046591;28;20045;-73
2023/12/01 10:29:30;;;;;;;31.50;13.80;;;;;;;0.99;99.79;100579.75;5040704;28;20033;-72
2023/12/01 10:31:57;;;;;;;30.10;14.73;;;;;;;1.01;99.94;100582.34;5033685;28;20068;-72
2023/12/01 10:34:23;;;;;;;38.10;14.88;;;;;;;1.04;99.78;100584.91;5046724;28;20388;-72
2023/12/01 10:36:49;;;;;;;31.23;13.95;;;;;;;1.08;100.00;100585.63;5050770;28;20047;-73
2023/12/01 10:39:16;;;;;;;31.15;14.07;;;;;;;1.08;99.16;100583.00;5056538;28;20377;-73
2023/12/01 10:41:44;;;;;;;30.10;14.65;;;;;;;1.09;99.08;100582.94;5050489;28;20507;-73
2023/12/01 10:44:16;;;;;;;28.33;13.23;;;;;;;1.11;98.89;100588.16;5053377;28;20033;-73
2023/12/01 10:46:45;;;;;;;31.80;14.40;;;;;;;1.10;99.00;100582.00;5054840;28;20036;-72
2023/12/01 10:49:13;;;;;;;31.50;14.63;;;;;;;1.13;99.60;100581.00;5042887;28;20119;-73
2023/12/01 10:51:39;;;;;;;29.27;13.95;;;;;;;1.14;100.00;100585.41;5052244;28;20048;-73
2023/12/01 10:54:08;;;;;;;32.17;14.50;;;;;;;1.14;97.91;100585.41;5047359;28;20029;-73
2023/12/01 10:56:43;;;;;;;35.22;14.75;;;;;;;1.13;98.36;100581.00;5043482;28;20469;-73
2023/12/01 10:59:11;;;;;;;32.80;13.27;;;;;;;1.12;97.41;100593.41;5049367;28;20028;-73
2023/12/01 11:01:39;;;;;;;29.02;12.02;;;;;;;1.12;97.18;100579.31;5051928;28;20037;-73
2023/12/01 11:04:07;;;;;;;37.53;14.35;;;;;;;1.13;96.55;100573.06;5053379;28;20025;-72
2023/12/01 11:07:07;;;;;;;31.98;13.50;;;;;;;1.15;98.34;100574.75;5046312;28;20068;-73